createdAt,value
2023-03-10T00:00:02.289Z,55.32
2023-03-10T00:01:06.578Z,55.28
2023-03-10T00:02:10.880Z,55.34
2023-03-10T00:03:15.170Z,54.65
2023-03-10T00:04:19.720Z,55.02
2023-03-10T00:05:24.203Z,54.8
2023-03-10T00:06:28.522Z,55.22
2023-03-10T00:07:32.777Z,55.28
2023-03-10T00:08:37.031Z,55.51
2023-03-10T00:09:41.319Z,55.2
2023-03-10T00:10:45.564Z,54.76
2023-03-10T00:11:49.844Z,55.49
2023-03-10T00:12:54.159Z,55.53
2023-03-10T00:13:58.440Z,55.29
2023-03-10T00:15:02.705Z,55.4
2023-03-10T00:16:07.250Z,55.07
2023-03-10T00:17:11.556Z,55.49
2023-03-10T00:18:15.807Z,55.35
2023-03-10T00:19:20.069Z,55.63
2023-03-10T00:20:24.419Z,55.59
2023-03-10T00:21:28.728Z,55.28
2023-03-10T00:22:33.008Z,55.7
2023-03-10T00:23:39.462Z,55.92
2023-03-10T00:24:43.787Z,55.1
2023-03-10T00:25:48.032Z,55.76
2023-03-10T00:26:52.312Z,55.53
2023-03-10T00:27:56.577Z,55.56
2023-03-10T00:29:00.879Z,55.87
2023-03-10T00:30:05.173Z,55.58
2023-03-10T00:31:09.674Z,55.58
2023-03-10T00:32:14.125Z,55.77
2023-03-10T00:33:18.509Z,55.3
2023-03-10T00:34:22.786Z,56
2023-03-10T00:35:27.034Z,55.91
2023-03-10T00:36:31.394Z,56.09
2023-03-10T00:37:35.649Z,55.87
2023-03-10T00:38:39.976Z,56.14
2023-03-10T00:39:44.249Z,55.88
2023-03-10T00:40:48.552Z,56.31
2023-03-10T00:41:52.885Z,56.25
2023-03-10T00:42:57.136Z,56.5
2023-03-10T00:44:01.411Z,56
2023-03-10T00:45:05.667Z,55.81
2023-03-10T00:46:10.202Z,56.48
2023-03-10T00:47:14.497Z,55.86
2023-03-10T00:48:18.763Z,55.87
2023-03-10T00:49:23.036Z,56.01
2023-03-10T00:50:27.278Z,56.16
2023-03-10T00:51:31.565Z,56.41
2023-03-10T00:52:35.882Z,56.38
2023-03-10T00:53:40.161Z,56.21
2023-03-10T00:54:44.463Z,56.71
2023-03-10T00:55:48.750Z,56.72
2023-03-10T00:56:56.205Z,56.61
2023-03-10T00:58:00.452Z,56.71
2023-03-10T00:59:05.739Z,56.65
2023-03-10T01:00:10.012Z,56.36
2023-03-10T01:01:14.383Z,57.05
2023-03-10T01:02:18.708Z,56.08
2023-03-10T01:03:23.002Z,56.73
2023-03-10T01:04:27.706Z,56.59
2023-03-10T01:05:32.055Z,56.96
2023-03-10T01:06:36.351Z,56.81
2023-03-10T01:07:40.596Z,56.62
2023-03-10T01:08:44.856Z,57.31
2023-03-10T01:09:49.144Z,57.02
2023-03-10T01:10:53.414Z,57.09
2023-03-10T01:11:57.735Z,56.3
2023-03-10T01:13:02.056Z,57.22
2023-03-10T01:14:06.285Z,56.3
2023-03-10T01:15:10.587Z,56.5
2023-03-10T01:16:15.255Z,56.44
2023-03-10T01:17:19.565Z,56.91
2023-03-10T01:18:23.881Z,56.49
2023-03-10T01:19:28.247Z,57.65
2023-03-10T01:20:32.522Z,57.37
2023-03-10T01:21:36.825Z,57.6
2023-03-10T01:22:41.172Z,57.19
2023-03-10T01:23:45.437Z,57.71
2023-03-10T01:24:49.686Z,57.69
2023-03-10T01:25:53.939Z,57.25
2023-03-10T01:26:58.201Z,56.75
2023-03-10T01:28:02.489Z,57.52
2023-03-10T01:29:06.805Z,57.71
2023-03-10T01:30:11.116Z,56.73
2023-03-10T01:31:15.778Z,56.47
2023-03-10T01:32:20.278Z,56.76
2023-03-10T01:33:24.563Z,56.92
2023-03-10T01:34:28.827Z,56.58
2023-03-10T01:35:33.314Z,56.51
2023-03-10T01:36:37.612Z,56.5
2023-03-10T01:37:44.575Z,57.08
2023-03-10T01:38:48.877Z,56.57
2023-03-10T01:39:53.148Z,56.83
2023-03-10T01:40:57.443Z,57.01
2023-03-10T01:42:01.698Z,56.98
2023-03-10T01:43:06.029Z,56.88
2023-03-10T01:44:10.270Z,56.73
2023-03-10T01:45:14.558Z,57.24
2023-03-10T01:46:18.990Z,56.85
2023-03-10T01:47:23.272Z,57.2
2023-03-10T01:48:27.561Z,57.31
2023-03-10T01:49:31.862Z,56.8
2023-03-10T01:50:36.119Z,57.84
2023-03-10T01:51:40.400Z,57.79
2023-03-10T01:52:44.677Z,56.8
2023-03-10T01:53:48.970Z,56.88
2023-03-10T01:54:53.275Z,57.11
2023-03-10T01:55:57.535Z,57.07
2023-03-10T01:57:01.816Z,56.57
2023-03-10T01:58:06.115Z,56.59
2023-03-10T01:59:10.394Z,56.77
2023-03-10T02:00:14.658Z,56.95
2023-03-10T02:01:19.276Z,56.75
2023-03-10T02:02:23.951Z,57.05
2023-03-10T02:03:28.259Z,57.08
2023-03-10T02:04:32.639Z,57.11
2023-03-10T02:05:37.450Z,56.78
2023-03-10T02:06:41.739Z,57.55
2023-03-10T02:07:46.055Z,57.88
2023-03-10T02:08:50.327Z,57.21
2023-03-10T02:09:54.872Z,57.16
2023-03-10T02:10:59.148Z,57.38
2023-03-10T02:12:03.415Z,57.14
2023-03-10T02:13:07.721Z,57.61
2023-03-10T02:14:12.066Z,57.43
2023-03-10T02:15:16.403Z,56.7
2023-03-10T02:16:21.040Z,56.92
2023-03-10T02:17:25.606Z,57.13
2023-03-10T02:18:29.881Z,57.04
2023-03-10T02:19:34.143Z,57.66
2023-03-10T02:20:38.422Z,57.9
2023-03-10T02:21:42.703Z,58.09
2023-03-10T02:22:46.953Z,57.67
2023-03-10T02:24:03.047Z,58.19
2023-03-10T02:25:07.326Z,57.46
2023-03-10T02:26:11.603Z,57.08
2023-03-10T02:27:15.899Z,57.73
2023-03-10T02:28:20.169Z,58.18
2023-03-10T02:29:24.459Z,57.71
2023-03-10T02:30:28.735Z,57.4
2023-03-10T02:31:33.145Z,57.28
2023-03-10T02:32:37.633Z,56.89
2023-03-10T02:33:41.920Z,57.91
2023-03-10T02:34:46.291Z,57.42
2023-03-10T02:35:50.683Z,57.15
2023-03-10T02:36:54.998Z,57.52
2023-03-10T02:37:59.290Z,58.39
2023-03-10T02:39:03.555Z,57.74
2023-03-10T02:40:07.854Z,57.35
2023-03-10T02:41:12.138Z,58.1
2023-03-10T02:42:16.383Z,58.51
2023-03-10T02:43:20.647Z,58.22
2023-03-10T02:44:25.328Z,57.33
2023-03-10T02:45:29.778Z,57.81
2023-03-10T02:46:34.025Z,57.18
2023-03-10T02:47:38.297Z,57.92
2023-03-10T02:48:42.560Z,57.76
2023-03-10T02:49:46.858Z,58.23
2023-03-10T02:50:51.121Z,57.69
2023-03-10T02:51:55.401Z,58.21
2023-03-10T02:52:59.741Z,57.53
2023-03-10T02:54:04.089Z,57.12
2023-03-10T02:55:08.648Z,57.65
2023-03-10T02:56:12.940Z,57.93
2023-03-10T02:57:17.207Z,57.45
2023-03-10T02:58:21.551Z,57.58
2023-03-10T02:59:25.817Z,57.5
2023-03-10T03:00:30.103Z,57.51
2023-03-10T03:01:34.623Z,57.66
2023-03-10T03:02:38.874Z,58.13
2023-03-10T03:03:43.407Z,57.73
2023-03-10T03:04:47.741Z,57.66
2023-03-10T03:05:51.995Z,57.38
2023-03-10T03:06:56.250Z,57.45
2023-03-10T03:08:00.496Z,57.8
2023-03-10T03:09:04.818Z,58.33
2023-03-10T03:10:09.093Z,57.8
2023-03-10T03:11:13.348Z,57.21
2023-03-10T03:12:17.597Z,57.66
2023-03-10T03:13:21.891Z,57.46
2023-03-10T03:14:26.156Z,57.65
2023-03-10T03:15:30.428Z,57.83
2023-03-10T03:16:35.029Z,57.59
2023-03-10T03:17:39.397Z,57.46
2023-03-10T03:18:43.770Z,57.71
2023-03-10T03:19:48.050Z,57.1
2023-03-10T03:20:52.322Z,58.53
2023-03-10T03:21:56.570Z,57.31
2023-03-10T03:23:00.832Z,58.31
2023-03-10T03:24:05.112Z,57.76
2023-03-10T03:25:09.370Z,57.81
2023-03-10T03:26:13.647Z,57.74
2023-03-10T03:27:17.920Z,58.22
2023-03-10T03:28:22.197Z,57.75
2023-03-10T03:29:26.467Z,58.32
2023-03-10T03:30:30.727Z,58.03
2023-03-10T03:31:35.161Z,57.58
2023-03-10T03:32:39.721Z,57.94
2023-03-10T03:33:44.006Z,58.14
2023-03-10T03:34:48.298Z,57.9
2023-03-10T03:35:52.724Z,58.34
2023-03-10T03:36:56.992Z,58.56
2023-03-10T03:38:01.247Z,57.8
2023-03-10T03:39:05.485Z,57.81
2023-03-10T03:40:09.856Z,58.11
2023-03-10T03:41:14.185Z,57.82
2023-03-10T03:42:18.466Z,57.33
2023-03-10T03:43:22.728Z,57.45
2023-03-10T03:44:26.980Z,57.66
2023-03-10T03:45:31.301Z,57.73
2023-03-10T03:46:35.796Z,57.86
2023-03-10T03:47:40.140Z,58.5
2023-03-10T03:48:44.417Z,57.77
2023-03-10T03:49:48.691Z,57.32
2023-03-10T03:50:52.973Z,57.95
2023-03-10T03:51:57.280Z,58.03
2023-03-10T03:53:01.548Z,57.94
2023-03-10T03:54:05.839Z,57.26
2023-03-10T03:55:10.130Z,57.45
2023-03-10T03:56:14.411Z,57.79
2023-03-10T03:57:18.674Z,57.47
2023-03-10T03:58:22.928Z,57.49
2023-03-10T03:59:27.250Z,57.87
2023-03-10T04:00:31.499Z,57.6
2023-03-10T04:01:35.753Z,58.12
2023-03-10T04:02:40.194Z,57.74
2023-03-10T04:03:44.748Z,58.01
2023-03-10T04:04:49.031Z,57.45
2023-03-10T04:05:53.367Z,57.68
2023-03-10T04:06:57.656Z,57.51
2023-03-10T04:08:01.938Z,57.87
2023-03-10T04:09:06.307Z,57.46
2023-03-10T04:10:10.579Z,57.59
2023-03-10T04:11:14.830Z,57.48
2023-03-10T04:12:19.079Z,58.32
2023-03-10T04:13:23.348Z,58.47
2023-03-10T04:14:27.702Z,58.81
2023-03-10T04:15:32.270Z,58.3
2023-03-10T04:16:36.563Z,57.82
2023-03-10T04:17:40.885Z,58.74
2023-03-10T04:18:45.441Z,57.99
2023-03-10T04:20:08.843Z,58.73
2023-03-10T04:21:13.228Z,58.71
2023-03-10T04:22:17.510Z,58.11
2023-03-10T04:23:21.840Z,57.5
2023-03-10T04:24:26.077Z,58.22
2023-03-10T04:25:30.409Z,57.64
2023-03-10T04:26:34.698Z,58.73
2023-03-10T04:27:38.973Z,57.75
2023-03-10T04:28:43.240Z,58.27
2023-03-10T04:29:47.516Z,57.83
2023-03-10T04:30:51.988Z,58.36
2023-03-10T04:32:07.121Z,57.91
2023-03-10T04:33:11.495Z,57.32
2023-03-10T04:34:15.893Z,57.44
2023-03-10T04:35:20.149Z,57.69
2023-03-10T04:36:24.431Z,57.33
2023-03-10T04:37:28.700Z,57.45
2023-03-10T04:38:32.997Z,58.6
2023-03-10T04:39:37.367Z,57.95
2023-03-10T04:40:41.661Z,57.59
2023-03-10T04:41:45.954Z,58.54
2023-03-10T04:42:50.202Z,58.34
2023-03-10T04:43:54.471Z,58.02
2023-03-10T04:44:58.809Z,57.98
2023-03-10T04:46:03.241Z,58.27
2023-03-10T04:47:07.552Z,58.71
2023-03-10T04:48:11.848Z,58.77
2023-03-10T04:49:16.114Z,58.04
2023-03-10T04:50:20.380Z,58.55
2023-03-10T04:51:24.634Z,58.84
2023-03-10T04:52:28.896Z,58.76
2023-03-10T04:53:33.178Z,58.05
2023-03-10T04:54:37.447Z,58.49
2023-03-10T04:55:41.876Z,58.33
2023-03-10T04:56:46.162Z,58.3
2023-03-10T04:57:50.465Z,58.72
2023-03-10T04:58:56.045Z,58.88
2023-03-10T05:00:04.558Z,57.93
2023-03-10T05:01:09.086Z,58.94
2023-03-10T05:02:13.681Z,58.9
2023-03-10T05:03:18.972Z,58.67
2023-03-10T05:04:23.462Z,59.09
2023-03-10T05:05:27.787Z,58.51
2023-03-10T05:06:32.062Z,57.83
2023-03-10T05:07:36.470Z,57.31
2023-03-10T05:08:40.750Z,55.95
2023-03-10T05:09:45.055Z,55.06
2023-03-10T05:10:49.312Z,54.5
2023-03-10T05:11:53.588Z,54.18
2023-03-10T05:12:57.898Z,54.1
2023-03-10T05:14:02.234Z,54.33
2023-03-10T05:15:06.746Z,54.14
2023-03-10T05:16:11.195Z,53.81
2023-03-10T05:17:15.494Z,53.49
2023-03-10T05:18:19.759Z,53.22
2023-03-10T05:19:24.031Z,52.91
2023-03-10T05:20:28.335Z,52.61
2023-03-10T05:21:32.596Z,52.4
2023-03-10T05:22:36.866Z,52.2
2023-03-10T05:23:41.167Z,52.02
2023-03-10T05:24:45.481Z,51.84
2023-03-10T05:25:49.779Z,51.76
2023-03-10T05:26:54.054Z,51.67
2023-03-10T05:27:58.297Z,51.59
2023-03-10T05:29:02.594Z,51.51
2023-03-10T05:30:06.890Z,51.39
2023-03-10T05:31:13.824Z,51.36
2023-03-10T05:32:18.480Z,51.32
2023-03-10T05:33:22.752Z,51.2
2023-03-10T05:34:27.046Z,51.18
2023-03-10T05:35:31.333Z,51.13
2023-03-10T05:36:35.587Z,51.11
2023-03-10T05:37:39.877Z,51.17
2023-03-10T05:38:44.202Z,51.18
2023-03-10T05:39:48.527Z,51.22
2023-03-10T05:40:52.801Z,51.25
2023-03-10T05:41:57.098Z,51.22
2023-03-10T05:43:01.395Z,51.28
2023-03-10T05:44:05.647Z,51.32
2023-03-10T05:45:09.923Z,51.32
2023-03-10T05:46:16.726Z,51.34
2023-03-10T05:47:21.009Z,51.31
2023-03-10T05:48:25.553Z,51.36
2023-03-10T05:49:29.827Z,51.37
2023-03-10T05:50:34.080Z,51.36
2023-03-10T05:51:38.328Z,51.38
2023-03-10T05:52:42.633Z,51.34
2023-03-10T05:53:46.918Z,51.27
2023-03-10T05:54:51.303Z,51.24
2023-03-10T05:55:55.614Z,51.32
2023-03-10T05:56:59.925Z,51.33
2023-03-10T05:58:04.212Z,51.41
2023-03-10T05:59:08.546Z,51.36
2023-03-10T06:00:12.812Z,51.28
2023-03-10T06:01:17.133Z,51.33
2023-03-10T06:02:21.438Z,51.13
2023-03-10T06:03:26.297Z,51.33
2023-03-10T06:04:30.793Z,51.09
2023-03-10T06:05:35.138Z,50.89
2023-03-10T06:06:39.432Z,50.68
2023-03-10T06:07:44.083Z,50.66
2023-03-10T06:08:48.595Z,50.72
2023-03-10T06:09:52.865Z,51.01
2023-03-10T06:10:57.165Z,50.67
2023-03-10T06:12:01.459Z,50.99
2023-03-10T06:13:05.792Z,50.86
2023-03-10T06:14:10.194Z,50.5
2023-03-10T06:15:14.479Z,50.42
2023-03-10T06:16:18.992Z,50.5
2023-03-10T06:17:23.530Z,50.35
2023-03-10T06:18:27.807Z,50.51
2023-03-10T06:19:32.141Z,50.6
2023-03-10T06:20:36.403Z,50.53
2023-03-10T06:21:40.657Z,50.41
2023-03-10T06:22:44.925Z,50.38
2023-03-10T06:23:49.202Z,50.55
2023-03-10T06:24:53.497Z,50.59
2023-03-10T06:25:57.768Z,50.45
2023-03-10T06:27:02.165Z,50.59
2023-03-10T06:28:09.766Z,50.72
2023-03-10T06:29:14.063Z,50.7
2023-03-10T06:30:18.326Z,50.58
2023-03-10T06:31:22.831Z,50.49
2023-03-10T06:32:27.356Z,50.69
2023-03-10T06:33:31.652Z,50.7
2023-03-10T06:34:35.997Z,50.62
2023-03-10T06:35:40.490Z,50.79
2023-03-10T06:36:44.800Z,50.75
2023-03-10T06:37:49.169Z,50.72
2023-03-10T06:38:53.490Z,50.86
2023-03-10T06:39:57.825Z,51.04
2023-03-10T06:41:02.101Z,51.04
2023-03-10T06:42:06.351Z,51
2023-03-10T06:43:10.594Z,51.06
2023-03-10T06:44:14.869Z,51.13
2023-03-10T06:45:19.125Z,51.07
2023-03-10T06:46:23.620Z,50.96
2023-03-10T06:47:28.178Z,51.04
2023-03-10T06:48:32.558Z,50.93
2023-03-10T06:49:36.871Z,50.88
2023-03-10T06:50:41.156Z,50.78
2023-03-10T06:51:45.433Z,50.74
2023-03-10T06:52:49.786Z,50.75
2023-03-10T06:53:54.052Z,50.88
2023-03-10T06:54:58.352Z,50.87
2023-03-10T06:56:02.648Z,50.72
2023-03-10T06:57:07.019Z,50.71
2023-03-10T06:58:11.306Z,50.54
2023-03-10T06:59:15.576Z,50.53
2023-03-10T07:00:19.847Z,50.51
2023-03-10T07:01:24.402Z,50.5
2023-03-10T07:02:28.751Z,50.59
2023-03-10T07:03:33.041Z,50.56
2023-03-10T07:04:37.526Z,50.61
2023-03-10T07:05:41.853Z,50.56
2023-03-10T07:06:46.111Z,50.64
2023-03-10T07:07:50.393Z,50.67
2023-03-10T07:08:54.704Z,50.72
2023-03-10T07:09:58.975Z,50.73
2023-03-10T07:11:03.222Z,50.88
2023-03-10T07:12:07.481Z,50.79
2023-03-10T07:13:11.747Z,50.79
2023-03-10T07:14:16.062Z,50.77
2023-03-10T07:15:20.345Z,50.91
2023-03-10T07:16:25.034Z,50.91
2023-03-10T07:17:29.347Z,50.98
2023-03-10T07:18:33.619Z,50.86
2023-03-10T07:19:37.940Z,50.91
2023-03-10T07:20:42.196Z,50.96
2023-03-10T07:21:46.533Z,51.01
2023-03-10T07:22:50.809Z,50.92
2023-03-10T07:23:55.403Z,50.99
2023-03-10T07:25:00.115Z,50.94
2023-03-10T07:26:04.450Z,50.89
2023-03-10T07:27:08.777Z,50.9
2023-03-10T07:28:13.134Z,51.02
2023-03-10T07:29:17.608Z,50.89
2023-03-10T07:30:21.878Z,50.93
2023-03-10T07:31:26.830Z,50.97
2023-03-10T07:32:31.368Z,50.94
2023-03-10T07:33:35.678Z,50.94
2023-03-10T07:34:39.935Z,50.9
2023-03-10T07:35:44.344Z,50.86
2023-03-10T07:36:48.712Z,50.75
2023-03-10T07:37:52.980Z,50.77
2023-03-10T07:38:57.286Z,50.6
2023-03-10T07:40:01.573Z,50.71
2023-03-10T07:41:05.818Z,50.66
2023-03-10T07:42:10.115Z,50.58
2023-03-10T07:43:14.638Z,50.52
2023-03-10T07:44:18.944Z,50.43
2023-03-10T07:45:23.231Z,50.36
2023-03-10T07:46:27.666Z,50.35
2023-03-10T07:47:32.010Z,50.3
2023-03-10T07:48:36.349Z,50.33
2023-03-10T07:49:40.816Z,50.42
2023-03-10T07:50:48.114Z,50.39
2023-03-10T07:51:52.380Z,50.36
2023-03-10T07:52:56.641Z,50.36
2023-03-10T07:54:00.932Z,50.44
2023-03-10T07:55:05.187Z,50.44
2023-03-10T07:56:09.489Z,50.49
2023-03-10T07:57:13.823Z,50.48
2023-03-10T07:58:19.092Z,50.41
2023-03-10T07:59:23.382Z,50.33
2023-03-10T08:00:27.712Z,50.37
2023-03-10T08:01:32.047Z,50.44
2023-03-10T08:02:36.899Z,50.5
2023-03-10T08:03:41.968Z,50.3
2023-03-10T08:04:47.419Z,50.18
2023-03-10T08:05:51.769Z,50.38
2023-03-10T08:06:56.067Z,50.43
2023-03-10T08:08:00.426Z,50.35
2023-03-10T08:09:04.719Z,50.31
2023-03-10T08:10:09.005Z,50.36
2023-03-10T08:11:13.254Z,50.45
2023-03-10T08:12:17.547Z,50.42
2023-03-10T08:13:22.196Z,50.42
2023-03-10T08:14:26.494Z,50.56
2023-03-10T08:15:30.799Z,50.61
2023-03-10T08:16:35.628Z,50.61
2023-03-10T08:17:40.572Z,50.58
2023-03-10T08:18:44.866Z,50.7
2023-03-10T08:19:49.141Z,50.68
2023-03-10T08:20:53.410Z,50.65
2023-03-10T08:21:57.736Z,50.65
2023-03-10T08:23:02.066Z,50.67
2023-03-10T08:24:06.327Z,50.76
2023-03-10T08:25:10.660Z,50.65
2023-03-10T08:26:14.961Z,50.72
2023-03-10T08:27:19.245Z,50.83
2023-03-10T08:28:23.508Z,50.86
2023-03-10T08:29:27.814Z,50.92
2023-03-10T08:30:32.109Z,50.9
2023-03-10T08:31:36.590Z,50.9
2023-03-10T08:32:41.399Z,50.92
2023-03-10T08:33:45.871Z,51.01
2023-03-10T08:34:50.143Z,50.93
2023-03-10T08:35:54.536Z,50.91
2023-03-10T08:36:58.939Z,50.9
2023-03-10T08:38:03.240Z,50.88
2023-03-10T08:39:07.565Z,50.83
2023-03-10T08:40:11.819Z,50.77
2023-03-10T08:41:16.159Z,50.8
2023-03-10T08:42:20.459Z,50.8
2023-03-10T08:43:24.906Z,50.67
2023-03-10T08:44:29.235Z,50.64
2023-03-10T08:45:33.562Z,50.6
2023-03-10T08:46:38.067Z,50.59
2023-03-10T08:47:42.629Z,50.55
2023-03-10T08:48:46.981Z,50.41
2023-03-10T08:49:51.274Z,50.3
2023-03-10T08:50:55.555Z,50.19
2023-03-10T08:51:59.825Z,50.04
2023-03-10T08:53:04.122Z,50.02
2023-03-10T08:54:08.432Z,49.98
2023-03-10T08:55:12.728Z,49.85
2023-03-10T08:56:17.250Z,49.88
2023-03-10T08:57:21.562Z,49.82
2023-03-10T08:58:25.870Z,49.75
2023-03-10T08:59:30.157Z,49.72
2023-03-10T09:00:34.444Z,49.67
2023-03-10T09:01:39.034Z,49.63
2023-03-10T09:02:43.562Z,49.66
2023-03-10T09:03:47.929Z,49.64
2023-03-10T09:04:52.258Z,49.66
2023-03-10T09:05:56.524Z,49.65
2023-03-10T09:07:00.809Z,49.74
2023-03-10T09:08:05.071Z,49.76
2023-03-10T09:09:09.416Z,49.73
2023-03-10T09:10:13.653Z,49.82
2023-03-10T09:11:17.942Z,49.82
2023-03-10T09:12:22.233Z,49.88
2023-03-10T09:13:26.478Z,49.89
2023-03-10T09:14:30.766Z,49.92
2023-03-10T09:15:35.032Z,49.96
2023-03-10T09:16:39.881Z,50.03
2023-03-10T09:17:44.253Z,49.9
2023-03-10T09:18:48.563Z,49.9
2023-03-10T09:19:52.875Z,49.87
2023-03-10T09:20:57.123Z,49.99
2023-03-10T09:22:01.398Z,49.89
2023-03-10T09:23:05.757Z,49.89
2023-03-10T09:24:12.396Z,49.63
2023-03-10T09:25:16.657Z,49.71
2023-03-10T09:26:20.949Z,49.81
2023-03-10T09:27:25.202Z,49.91
2023-03-10T09:28:29.615Z,49.8
2023-03-10T09:30:49.263Z,49.83
2023-03-10T09:31:53.766Z,49.79
2023-03-10T09:32:59.729Z,49.86
2023-03-10T09:34:04.028Z,50.04
2023-03-10T09:35:08.296Z,49.91
2023-03-10T09:36:12.839Z,50.05
2023-03-10T09:37:17.167Z,49.46
2023-03-10T09:38:21.414Z,49.13
2023-03-10T09:39:25.704Z,49.07
2023-03-10T09:40:29.988Z,48.96
2023-03-10T09:41:39.271Z,48.94
2023-03-10T09:42:43.531Z,48.69
2023-03-10T09:43:47.820Z,48.86
2023-03-10T09:44:52.094Z,48.68
2023-03-10T09:45:56.638Z,48.81
2023-03-10T09:47:00.977Z,48.73
2023-03-10T09:48:06.971Z,48.67
2023-03-10T09:49:11.239Z,48.68
2023-03-10T09:50:15.524Z,48.83
2023-03-10T09:51:19.767Z,48.98
2023-03-10T09:52:24.043Z,49.07
2023-03-10T09:53:28.307Z,49.14
2023-03-10T09:54:32.596Z,49.3
2023-03-10T09:55:48.375Z,48.99
2023-03-10T09:56:55.804Z,48.87
2023-03-10T09:58:01.523Z,48.68
2023-03-10T09:59:06.267Z,48.59
2023-03-10T10:00:10.621Z,48.48
2023-03-10T10:01:15.142Z,48.45
2023-03-10T10:02:19.436Z,48.33
2023-03-10T10:03:24.018Z,48.16
2023-03-10T10:04:28.523Z,48.16
2023-03-10T10:05:32.828Z,48.12
2023-03-10T10:06:37.139Z,48.07
2023-03-10T10:07:41.397Z,48.16
2023-03-10T10:09:05.647Z,48.05
2023-03-10T10:10:10.082Z,48.09
2023-03-10T10:11:14.349Z,48
2023-03-10T10:12:19.058Z,48.01
2023-03-10T10:13:23.478Z,48.08
2023-03-10T10:14:32.886Z,48.04
2023-03-10T10:15:37.714Z,47.97
2023-03-10T10:16:42.183Z,48.07
2023-03-10T10:18:17.812Z,48.09
2023-03-10T10:19:22.632Z,48.14
2023-03-10T10:20:29.247Z,48.14
2023-03-10T10:21:44.385Z,48.24
2023-03-10T10:22:48.708Z,48.37
2023-03-10T10:23:52.958Z,48.42
2023-03-10T10:24:59.437Z,48.46
2023-03-10T10:26:04.716Z,48.45
2023-03-10T10:27:09.011Z,48.45
2023-03-10T10:28:13.318Z,48.55
2023-03-10T10:29:17.605Z,48.62
2023-03-10T10:30:21.898Z,48.6
2023-03-10T10:31:26.498Z,48.71
2023-03-10T10:32:30.920Z,48.71
2023-03-10T10:33:35.219Z,48.81
2023-03-10T10:34:39.540Z,48.8
2023-03-10T10:35:44.017Z,48.87
2023-03-10T10:36:48.318Z,48.95
2023-03-10T10:37:52.595Z,49.03
2023-03-10T10:38:57.058Z,49.07
2023-03-10T10:40:01.345Z,49.1
2023-03-10T10:41:09.275Z,49.14
2023-03-10T10:42:13.613Z,49.15
2023-03-10T10:43:17.906Z,49.21
2023-03-10T10:44:22.219Z,49.15
2023-03-10T10:45:26.542Z,49.26
2023-03-10T10:46:31.080Z,49.27
2023-03-10T10:47:35.388Z,49.44
2023-03-10T10:48:39.773Z,49.37
2023-03-10T10:49:44.034Z,49.43
2023-03-10T10:50:48.548Z,49.43
2023-03-10T10:51:55.716Z,49.4
2023-03-10T10:52:59.969Z,49.41
2023-03-10T10:54:04.292Z,49.43
2023-03-10T10:55:08.559Z,49.46
2023-03-10T10:56:12.892Z,49.39
2023-03-10T10:57:17.163Z,49.49
2023-03-10T10:58:21.428Z,49.42
2023-03-10T10:59:25.741Z,49.36
2023-03-10T11:00:30.027Z,49.39
2023-03-10T11:01:34.452Z,49.34
2023-03-10T11:02:39.925Z,49.4
2023-03-10T11:03:44.203Z,49.4
2023-03-10T11:04:48.493Z,49.43
2023-03-10T11:05:54.097Z,49.39
2023-03-10T11:06:59.664Z,49.4
2023-03-10T11:08:03.923Z,49.54
2023-03-10T11:09:13.068Z,49.33
2023-03-10T11:10:17.356Z,49.4
2023-03-10T11:11:21.662Z,49.37
2023-03-10T11:12:25.916Z,49.48
2023-03-10T11:13:30.289Z,49.46
2023-03-10T11:14:34.557Z,49.36
2023-03-10T11:15:39.182Z,49.4
2023-03-10T11:16:43.619Z,49.47
2023-03-10T11:17:47.950Z,49.48
2023-03-10T11:18:53.605Z,49.46
2023-03-10T11:19:57.935Z,49.45
2023-03-10T11:21:02.217Z,49.43
2023-03-10T11:22:06.562Z,49.44
2023-03-10T11:23:10.857Z,49.44
2023-03-10T11:24:15.187Z,49.42
2023-03-10T11:25:19.464Z,49.5
2023-03-10T11:26:23.706Z,49.54
2023-03-10T11:27:30.269Z,49.49
2023-03-10T11:28:34.525Z,49.37
2023-03-10T11:29:38.949Z,49.42
2023-03-10T11:30:43.445Z,49.52
2023-03-10T11:31:47.723Z,49.53
2023-03-10T11:32:52.383Z,49.42
2023-03-10T11:33:56.871Z,49.54
2023-03-10T11:35:01.198Z,49.56
2023-03-10T11:36:05.840Z,49.62
2023-03-10T11:37:10.177Z,49.55
2023-03-10T11:38:14.454Z,49.66
2023-03-10T11:39:18.716Z,49.79
2023-03-10T11:40:22.999Z,49.71
2023-03-10T11:41:27.254Z,49.68
2023-03-10T11:42:32.586Z,49.68
2023-03-10T11:43:36.885Z,49.78
2023-03-10T11:44:41.189Z,49.73
2023-03-10T11:45:45.510Z,49.79
2023-03-10T11:46:50.032Z,49.83
2023-03-10T11:47:54.316Z,49.74
2023-03-10T11:48:58.568Z,49.76
2023-03-10T11:50:02.897Z,49.64
2023-03-10T11:51:07.165Z,49.7
2023-03-10T11:52:11.530Z,49.68
2023-03-10T11:53:15.823Z,49.6
2023-03-10T11:54:20.358Z,49.65
2023-03-10T11:55:24.676Z,49.6
2023-03-10T11:56:28.975Z,49.59
2023-03-10T11:57:33.339Z,49.62
2023-03-10T11:58:37.659Z,49.65
2023-03-10T11:59:41.943Z,49.55
2023-03-10T12:00:46.206Z,49.54
2023-03-10T12:01:50.482Z,49.55
2023-03-10T12:02:54.788Z,49.47
2023-03-10T12:03:59.442Z,49.49
2023-03-10T12:05:04.060Z,49.47
2023-03-10T12:06:08.368Z,49.44
2023-03-10T12:07:12.666Z,49.43
2023-03-10T12:08:16.963Z,49.48
2023-03-10T12:09:21.236Z,49.41
2023-03-10T12:10:25.558Z,49.38
2023-03-10T12:11:29.970Z,49.38
2023-03-10T12:12:34.327Z,49.3
2023-03-10T12:13:38.653Z,49.38
2023-03-10T12:14:42.929Z,49.39
2023-03-10T12:15:47.570Z,49.37
2023-03-10T12:16:51.904Z,49.35
2023-03-10T12:17:56.281Z,49.39
2023-03-10T12:19:00.610Z,49.4
2023-03-10T12:20:04.877Z,49.41
2023-03-10T12:21:09.132Z,49.39
2023-03-10T12:22:13.407Z,49.45
2023-03-10T12:23:17.704Z,49.48
2023-03-10T12:24:21.986Z,49.5
2023-03-10T12:25:26.314Z,49.48
2023-03-10T12:26:30.675Z,49.56
2023-03-10T12:27:34.964Z,49.6
2023-03-10T12:28:39.231Z,49.58
2023-03-10T12:29:43.488Z,49.6
2023-03-10T12:30:47.757Z,49.65
2023-03-10T12:31:52.420Z,49.63
2023-03-10T12:32:57.341Z,49.68
2023-03-10T12:34:01.700Z,49.68
2023-03-10T12:35:05.951Z,49.7
2023-03-10T12:36:10.508Z,49.68
2023-03-10T12:37:14.812Z,49.64
2023-03-10T12:38:19.179Z,49.67
2023-03-10T12:39:23.502Z,49.62
2023-03-10T12:40:27.949Z,49.61
2023-03-10T12:41:32.215Z,49.6
2023-03-10T12:42:36.556Z,49.67
2023-03-10T12:43:40.840Z,49.64
2023-03-10T12:44:45.276Z,49.65
2023-03-10T12:45:50.065Z,49.55
2023-03-10T12:46:54.666Z,49.68
2023-03-10T12:47:58.982Z,49.62
2023-03-10T12:49:06.420Z,49.62
2023-03-10T12:50:10.657Z,49.57
2023-03-10T12:51:16.012Z,49.57
2023-03-10T12:52:21.175Z,49.58
2023-03-10T12:53:25.505Z,49.62
2023-03-10T12:54:29.775Z,49.57
2023-03-10T12:55:34.051Z,49.46
2023-03-10T12:56:38.507Z,49.51
2023-03-10T12:57:42.800Z,49.46
2023-03-10T12:58:47.110Z,49.44
2023-03-10T12:59:51.375Z,49.38
2023-03-10T13:00:55.968Z,49.39
2023-03-10T13:02:00.416Z,49.38
2023-03-10T13:03:04.719Z,49.42
2023-03-10T13:04:09.326Z,49.4
2023-03-10T13:05:13.693Z,49.37
2023-03-10T13:06:17.942Z,49.45
2023-03-10T13:07:22.218Z,49.41
2023-03-10T13:08:26.500Z,49.34
2023-03-10T13:09:30.764Z,49.39
2023-03-10T13:10:35.051Z,49.44
2023-03-10T13:11:39.435Z,49.45
2023-03-10T13:12:43.779Z,49.4
2023-03-10T13:13:48.059Z,49.44
2023-03-10T13:14:52.321Z,49.46
2023-03-10T13:15:56.581Z,49.51
2023-03-10T13:17:00.974Z,49.54
2023-03-10T13:18:05.243Z,49.57
2023-03-10T13:19:09.558Z,49.6
2023-03-10T13:20:14.045Z,49.63
2023-03-10T13:21:18.337Z,49.65
2023-03-10T13:22:22.630Z,49.68
2023-03-10T13:23:26.887Z,49.69
2023-03-10T13:24:31.211Z,49.71
2023-03-10T13:25:35.494Z,49.72
2023-03-10T13:26:39.801Z,49.75
2023-03-10T13:27:44.115Z,49.75
2023-03-10T13:28:48.376Z,49.77
2023-03-10T13:29:52.763Z,49.76
2023-03-10T13:30:57.030Z,49.87
2023-03-10T13:32:01.733Z,49.88
2023-03-10T13:33:06.099Z,49.88
2023-03-10T13:34:10.368Z,49.83
2023-03-10T13:35:14.714Z,49.84
2023-03-10T13:36:19.137Z,49.84
2023-03-10T13:37:23.414Z,49.96
2023-03-10T13:38:27.700Z,49.92
2023-03-10T13:39:32.009Z,49.93
2023-03-10T13:40:36.317Z,49.91
2023-03-10T13:41:40.585Z,49.89
2023-03-10T13:42:46.696Z,49.88
2023-03-10T13:43:50.988Z,49.95
2023-03-10T13:44:55.272Z,50.06
2023-03-10T13:45:59.920Z,50.01
2023-03-10T13:47:05.387Z,50.07
2023-03-10T13:48:09.690Z,49.99
2023-03-10T13:49:13.952Z,50.12
2023-03-10T13:50:18.234Z,50.1
2023-03-10T13:51:22.527Z,50.23
2023-03-10T13:52:26.868Z,50.21
2023-03-10T13:53:31.194Z,50.17
2023-03-10T13:54:35.469Z,50.16
2023-03-10T13:55:39.749Z,50.19